sensor_id;sensor_type;location;lat;lon;timestamp;temperature;humidity
21316;DHT22;10817;55.820;13.030;2023-11-18T00:00:12;-1.40;99.90
21316;DHT22;10817;55.820;13.030;2023-11-18T00:02:42;-1.50;99.90
21316;DHT22;10817;55.820;13.030;2023-11-18T00:05:10;-1.50;99.90
21316;DHT22;10817;55.820;13.030;2023-11-18T00:07:37;-1.40;99.90
21316;DHT22;10817;55.820;13.030;2023-11-18T00:10:04;-1.30;99.90
21316;DHT22;10817;55.820;13.030;2023-11-18T00:12:31;-1.20;99.90
21316;DHT22;10817;55.820;13.030;2023-11-18T00:15:00;-1.30;99.90
21316;DHT22;10817;55.820;13.030;2023-11-18T00:17:27;-1.30;99.90
21316;DHT22;10817;55.820;13.030;2023-11-18T00:19:54;-1.30;99.90
21316;DHT22;10817;55.820;13.030;2023-11-18T00:22:21;-1.30;99.90
21316;DHT22;10817;55.820;13.030;2023-11-18T00:24:48;-1.40;99.90
21316;DHT22;10817;55.820;13.030;2023-11-18T00:27:15;-1.40;99.90
21316;DHT22;10817;55.820;13.030;2023-11-18T00:29:41;-1.60;99.90
21316;DHT22;10817;55.820;13.030;2023-11-18T00:32:09;-1.60;99.90
21316;DHT22;10817;55.820;13.030;2023-11-18T00:34:37;-1.60;99.90
21316;DHT22;10817;55.820;13.030;2023-11-18T00:37:04;-1.60;99.90
21316;DHT22;10817;55.820;13.030;2023-11-18T00:39:31;-1.60;99.90
21316;DHT22;10817;55.820;13.030;2023-11-18T00:41:58;-1.60;99.90
21316;DHT22;10817;55.820;13.030;2023-11-18T00:44:25;-1.70;99.90
21316;DHT22;10817;55.820;13.030;2023-11-18T00:46:52;-1.70;99.90
21316;DHT22;10817;55.820;13.030;2023-11-18T00:49:18;-1.70;99.90
21316;DHT22;10817;55.820;13.030;2023-11-18T00:51:46;-1.80;99.90
21316;DHT22;10817;55.820;13.030;2023-11-18T00:54:13;-1.80;99.90
21316;DHT22;10817;55.820;13.030;2023-11-18T00:56:40;-1.90;99.90
21316;DHT22;10817;55.820;13.030;2023-11-18T00:59:07;-2.00;99.90
21316;DHT22;10817;55.820;13.030;2023-11-18T01:01:34;-2.00;99.90
21316;DHT22;10817;55.820;13.030;2023-11-18T01:04:04;-2.10;99.90
21316;DHT22;10817;55.820;13.030;2023-11-18T01:06:36;-2.10;99.90
21316;DHT22;10817;55.820;13.030;2023-11-18T01:09:05;-2.10;99.90
21316;DHT22;10817;55.820;13.030;2023-11-18T01:11:34;-1.50;99.90
21316;DHT22;10817;55.820;13.030;2023-11-18T01:14:01;-2.10;99.90
21316;DHT22;10817;55.820;13.030;2023-11-18T01:16:28;-2.10;99.90
21316;DHT22;10817;55.820;13.030;2023-11-18T01:18:56;-2.10;99.90
21316;DHT22;10817;55.820;13.030;2023-11-18T01:21:23;-2.00;99.90
21316;DHT22;10817;55.820;13.030;2023-11-18T01:23:50;-0.80;99.90
21316;DHT22;10817;55.820;13.030;2023-11-18T01:26:18;-2.00;99.90
21316;DHT22;10817;55.820;13.030;2023-11-18T01:28:44;-1.90;99.90
21316;DHT22;10817;55.820;13.030;2023-11-18T01:31:12;-1.90;99.90
21316;DHT22;10817;55.820;13.030;2023-11-18T01:33:39;-1.80;99.90
21316;DHT22;10817;55.820;13.030;2023-11-18T01:36:07;-1.80;99.90
21316;DHT22;10817;55.820;13.030;2023-11-18T01:38:35;-1.70;99.90
21316;DHT22;10817;55.820;13.030;2023-11-18T01:41:03;-1.70;99.90
21316;DHT22;10817;55.820;13.030;2023-11-18T01:43:33;-1.70;99.90
21316;DHT22;10817;55.820;13.030;2023-11-18T01:46:03;-1.60;99.90
21316;DHT22;10817;55.820;13.030;2023-11-18T01:48:31;-1.60;99.90
21316;DHT22;10817;55.820;13.030;2023-11-18T01:50:59;-1.70;99.90
21316;DHT22;10817;55.820;13.030;2023-11-18T01:53:28;-1.80;99.90
21316;DHT22;10817;55.820;13.030;2023-11-18T01:55:55;-1.90;99.90
21316;DHT22;10817;55.820;13.030;2023-11-18T01:58:26;-1.80;99.90
21316;DHT22;10817;55.820;13.030;2023-11-18T02:00:58;-2.00;99.90
21316;DHT22;10817;55.820;13.030;2023-11-18T02:03:25;-2.10;99.90
21316;DHT22;10817;55.820;13.030;2023-11-18T02:05:52;-2.20;99.90
21316;DHT22;10817;55.820;13.030;2023-11-18T02:08:19;-2.20;99.90
21316;DHT22;10817;55.820;13.030;2023-11-18T02:10:48;-2.40;99.90
21316;DHT22;10817;55.820;13.030;2023-11-18T02:13:22;-2.40;99.90
21316;DHT22;10817;55.820;13.030;2023-11-18T02:15:53;-2.20;99.90
21316;DHT22;10817;55.820;13.030;2023-11-18T02:18:25;-2.10;99.90
21316;DHT22;10817;55.820;13.030;2023-11-18T02:20:55;-2.20;99.90
21316;DHT22;10817;55.820;13.030;2023-11-18T02:23:23;-2.20;99.90
21316;DHT22;10817;55.820;13.030;2023-11-18T02:25:53;-2.10;99.90
21316;DHT22;10817;55.820;13.030;2023-11-18T02:28:21;-2.20;99.90
21316;DHT22;10817;55.820;13.030;2023-11-18T02:30:50;-2.20;99.90
21316;DHT22;10817;55.820;13.030;2023-11-18T02:33:25;-2.20;99.90
21316;DHT22;10817;55.820;13.030;2023-11-18T02:35:59;-2.20;99.90
21316;DHT22;10817;55.820;13.030;2023-11-18T02:38:30;-2.20;99.90
21316;DHT22;10817;55.820;13.030;2023-11-18T02:41:02;-2.20;99.90
21316;DHT22;10817;55.820;13.030;2023-11-18T02:43:32;-2.20;99.90
21316;DHT22;10817;55.820;13.030;2023-11-18T02:46:03;-2.00;99.90
21316;DHT22;10817;55.820;13.030;2023-11-18T02:48:31;-2.10;99.90
21316;DHT22;10817;55.820;13.030;2023-11-18T02:50:58;-2.10;99.90
21316;DHT22;10817;55.820;13.030;2023-11-18T02:53:25;-2.20;99.90
21316;DHT22;10817;55.820;13.030;2023-11-18T02:55:52;-2.30;99.90
21316;DHT22;10817;55.820;13.030;2023-11-18T02:58:20;-2.20;99.90
21316;DHT22;10817;55.820;13.030;2023-11-18T03:00:47;-2.20;99.90
21316;DHT22;10817;55.820;13.030;2023-11-18T03:03:14;-2.20;99.90
21316;DHT22;10817;55.820;13.030;2023-11-18T03:05:42;-2.30;99.90
21316;DHT22;10817;55.820;13.030;2023-11-18T03:08:08;-2.30;99.90
21316;DHT22;10817;55.820;13.030;2023-11-18T03:10:35;-2.40;99.90
21316;DHT22;10817;55.820;13.030;2023-11-18T03:13:03;-2.50;99.90
21316;DHT22;10817;55.820;13.030;2023-11-18T03:15:31;-2.40;99.90
21316;DHT22;10817;55.820;13.030;2023-11-18T03:17:57;-2.40;99.90
21316;DHT22;10817;55.820;13.030;2023-11-18T03:20:24;-2.30;99.90
21316;DHT22;10817;55.820;13.030;2023-11-18T03:22:51;-2.40;99.90
21316;DHT22;10817;55.820;13.030;2023-11-18T03:25:20;-2.40;99.90
21316;DHT22;10817;55.820;13.030;2023-11-18T03:27:48;-2.40;99.90
21316;DHT22;10817;55.820;13.030;2023-11-18T03:30:14;-2.50;99.90
21316;DHT22;10817;55.820;13.030;2023-11-18T03:32:43;-2.50;99.90
21316;DHT22;10817;55.820;13.030;2023-11-18T03:35:11;-2.60;99.90
21316;DHT22;10817;55.820;13.030;2023-11-18T03:37:38;-2.60;99.90
21316;DHT22;10817;55.820;13.030;2023-11-18T03:40:07;-2.70;99.90
21316;DHT22;10817;55.820;13.030;2023-11-18T03:42:34;-2.70;99.90
21316;DHT22;10817;55.820;13.030;2023-11-18T03:45:03;-2.80;99.90
21316;DHT22;10817;55.820;13.030;2023-11-18T03:47:30;-2.80;99.90
21316;DHT22;10817;55.820;13.030;2023-11-18T03:49:58;-2.80;99.90
21316;DHT22;10817;55.820;13.030;2023-11-18T03:52:25;-2.80;99.90
21316;DHT22;10817;55.820;13.030;2023-11-18T03:54:53;-2.80;99.90
21316;DHT22;10817;55.820;13.030;2023-11-18T03:57:20;-2.80;99.90
21316;DHT22;10817;55.820;13.030;2023-11-18T03:59:47;-2.80;99.90
21316;DHT22;10817;55.820;13.030;2023-11-18T04:02:14;-2.80;99.90
21316;DHT22;10817;55.820;13.030;2023-11-18T04:04:41;-2.90;99.90
21316;DHT22;10817;55.820;13.030;2023-11-18T04:07:09;-2.90;99.90
21316;DHT22;10817;55.820;13.030;2023-11-18T04:09:36;-3.00;99.90
21316;DHT22;10817;55.820;13.030;2023-11-18T04:12:03;-3.10;99.90
21316;DHT22;10817;55.820;13.030;2023-11-18T04:14:30;-3.10;99.90
21316;DHT22;10817;55.820;13.030;2023-11-18T04:16:57;-3.20;99.90
21316;DHT22;10817;55.820;13.030;2023-11-18T04:19:24;-3.20;99.90
21316;DHT22;10817;55.820;13.030;2023-11-18T04:21:51;-3.10;99.90
21316;DHT22;10817;55.820;13.030;2023-11-18T04:24:20;-3.00;99.90
21316;DHT22;10817;55.820;13.030;2023-11-18T04:26:48;-2.90;99.90
21316;DHT22;10817;55.820;13.030;2023-11-18T04:29:15;-2.90;99.90
21316;DHT22;10817;55.820;13.030;2023-11-18T04:31:43;-2.90;99.90
21316;DHT22;10817;55.820;13.030;2023-11-18T04:34:10;-2.90;99.90
21316;DHT22;10817;55.820;13.030;2023-11-18T04:36:37;-2.80;99.90
21316;DHT22;10817;55.820;13.030;2023-11-18T04:39:04;-2.70;99.90
21316;DHT22;10817;55.820;13.030;2023-11-18T04:41:32;-2.80;99.90
21316;DHT22;10817;55.820;13.030;2023-11-18T04:43:59;-2.70;99.90
21316;DHT22;10817;55.820;13.030;2023-11-18T04:46:26;-2.70;99.90
21316;DHT22;10817;55.820;13.030;2023-11-18T04:48:53;-2.60;99.90
21316;DHT22;10817;55.820;13.030;2023-11-18T04:51:20;-2.60;99.90
21316;DHT22;10817;55.820;13.030;2023-11-18T04:53:47;-2.60;99.90
21316;DHT22;10817;55.820;13.030;2023-11-18T04:56:14;-2.80;99.90
21316;DHT22;10817;55.820;13.030;2023-11-18T04:58:46;-2.80;99.90
21316;DHT22;10817;55.820;13.030;2023-11-18T05:01:13;-2.90;99.90
21316;DHT22;10817;55.820;13.030;2023-11-18T05:03:40;-2.90;99.90
21316;DHT22;10817;55.820;13.030;2023-11-18T05:06:07;-2.90;99.90
21316;DHT22;10817;55.820;13.030;2023-11-18T05:08:34;-2.90;99.90
21316;DHT22;10817;55.820;13.030;2023-11-18T05:11:01;-2.80;99.90
21316;DHT22;10817;55.820;13.030;2023-11-18T05:13:30;-3.00;99.90
21316;DHT22;10817;55.820;13.030;2023-11-18T05:15:59;-3.10;99.90
21316;DHT22;10817;55.820;13.030;2023-11-18T05:18:26;-3.20;99.90
21316;DHT22;10817;55.820;13.030;2023-11-18T05:20:55;-2.90;99.90
21316;DHT22;10817;55.820;13.030;2023-11-18T05:23:22;-2.90;99.90
21316;DHT22;10817;55.820;13.030;2023-11-18T05:25:49;-2.90;99.90
21316;DHT22;10817;55.820;13.030;2023-11-18T05:28:16;-2.90;99.90
21316;DHT22;10817;55.820;13.030;2023-11-18T05:30:43;-2.80;99.90
21316;DHT22;10817;55.820;13.030;2023-11-18T05:33:11;-3.00;99.90
21316;DHT22;10817;55.820;13.030;2023-11-18T05:35:43;-3.00;99.90
21316;DHT22;10817;55.820;13.030;2023-11-18T05:38:14;-2.70;99.90
21316;DHT22;10817;55.820;13.030;2023-11-18T05:40:44;-2.50;99.90
21316;DHT22;10817;55.820;13.030;2023-11-18T05:43:21;-2.40;99.90
21316;DHT22;10817;55.820;13.030;2023-11-18T05:45:50;-2.30;99.90
21316;DHT22;10817;55.820;13.030;2023-11-18T05:48:42;-2.40;99.90
21316;DHT22;10817;55.820;13.030;2023-11-18T05:51:09;-2.50;99.90
21316;DHT22;10817;55.820;13.030;2023-11-18T05:53:39;-2.60;99.90
21316;DHT22;10817;55.820;13.030;2023-11-18T05:56:07;-2.80;99.90
21316;DHT22;10817;55.820;13.030;2023-11-18T05:58:34;-3.00;99.90
21316;DHT22;10817;55.820;13.030;2023-11-18T06:01:02;-3.00;99.90
21316;DHT22;10817;55.820;13.030;2023-11-18T06:03:30;-3.20;99.90
21316;DHT22;10817;55.820;13.030;2023-11-18T06:05:58;-3.30;99.90
21316;DHT22;10817;55.820;13.030;2023-11-18T06:08:25;-3.30;99.90
21316;DHT22;10817;55.820;13.030;2023-11-18T06:10:52;-1.50;99.90
21316;DHT22;10817;55.820;13.030;2023-11-18T06:13:22;-3.40;99.90
21316;DHT22;10817;55.820;13.030;2023-11-18T06:15:49;-3.30;99.90
21316;DHT22;10817;55.820;13.030;2023-11-18T06:18:17;-3.30;99.90
21316;DHT22;10817;55.820;13.030;2023-11-18T06:20:44;-3.20;99.90
21316;DHT22;10817;55.820;13.030;2023-11-18T06:23:12;-3.20;99.90
21316;DHT22;10817;55.820;13.030;2023-11-18T06:25:41;-3.30;99.90
21316;DHT22;10817;55.820;13.030;2023-11-18T06:28:08;-3.20;99.90
21316;DHT22;10817;55.820;13.030;2023-11-18T06:30:34;-3.20;99.90
21316;DHT22;10817;55.820;13.030;2023-11-18T06:33:02;-3.20;99.90
21316;DHT22;10817;55.820;13.030;2023-11-18T06:35:29;-3.10;99.90
21316;DHT22;10817;55.820;13.030;2023-11-18T06:37:56;-3.10;99.90
21316;DHT22;10817;55.820;13.030;2023-11-18T06:40:25;-1.10;99.90
21316;DHT22;10817;55.820;13.030;2023-11-18T06:42:52;-3.10;99.90
21316;DHT22;10817;55.820;13.030;2023-11-18T06:45:27;-3.00;99.90
21316;DHT22;10817;55.820;13.030;2023-11-18T06:47:57;-3.10;99.90
21316;DHT22;10817;55.820;13.030;2023-11-18T06:50:24;-3.10;99.90
21316;DHT22;10817;55.820;13.030;2023-11-18T06:52:52;-3.10;99.90
21316;DHT22;10817;55.820;13.030;2023-11-18T06:55:19;-2.90;99.90
21316;DHT22;10817;55.820;13.030;2023-11-18T06:57:47;-2.90;99.90
21316;DHT22;10817;55.820;13.030;2023-11-18T07:00:15;-2.90;99.90
21316;DHT22;10817;55.820;13.030;2023-11-18T07:02:42;-2.80;99.90
21316;DHT22;10817;55.820;13.030;2023-11-18T07:05:09;-2.80;99.90
21316;DHT22;10817;55.820;13.030;2023-11-18T07:07:36;-2.80;99.90
21316;DHT22;10817;55.820;13.030;2023-11-18T07:10:04;-2.80;99.90
21316;DHT22;10817;55.820;13.030;2023-11-18T07:12:32;-2.90;99.90
21316;DHT22;10817;55.820;13.030;2023-11-18T07:15:00;-3.00;99.90
21316;DHT22;10817;55.820;13.030;2023-11-18T07:17:27;-3.00;99.90
21316;DHT22;10817;55.820;13.030;2023-11-18T07:19:54;-2.90;99.90
21316;DHT22;10817;55.820;13.030;2023-11-18T07:22:21;-2.70;99.90
21316;DHT22;10817;55.820;13.030;2023-11-18T07:24:48;-2.60;99.90
21316;DHT22;10817;55.820;13.030;2023-11-18T07:27:15;-2.60;99.90
21316;DHT22;10817;55.820;13.030;2023-11-18T07:29:41;-2.70;99.90
21316;DHT22;10817;55.820;13.030;2023-11-18T07:32:12;-2.70;99.90
21316;DHT22;10817;55.820;13.030;2023-11-18T07:34:39;-2.80;99.90
21316;DHT22;10817;55.820;13.030;2023-11-18T07:37:06;-2.70;99.90
21316;DHT22;10817;55.820;13.030;2023-11-18T07:39:34;-2.70;99.90
21316;DHT22;10817;55.820;13.030;2023-11-18T07:42:10;-2.80;99.90
21316;DHT22;10817;55.820;13.030;2023-11-18T07:44:37;-2.70;99.90
21316;DHT22;10817;55.820;13.030;2023-11-18T07:47:05;-2.60;99.90
21316;DHT22;10817;55.820;13.030;2023-11-18T07:49:34;-2.50;99.90
21316;DHT22;10817;55.820;13.030;2023-11-18T07:52:01;-2.40;99.90
21316;DHT22;10817;55.820;13.030;2023-11-18T07:54:28;-2.40;99.90
21316;DHT22;10817;55.820;13.030;2023-11-18T07:56:55;-2.30;99.90
21316;DHT22;10817;55.820;13.030;2023-11-18T07:59:22;-2.20;99.90
21316;DHT22;10817;55.820;13.030;2023-11-18T08:01:49;-2.20;99.90
21316;DHT22;10817;55.820;13.030;2023-11-18T08:04:18;-2.20;99.90
21316;DHT22;10817;55.820;13.030;2023-11-18T08:06:48;-2.10;99.90
21316;DHT22;10817;55.820;13.030;2023-11-18T08:09:16;-2.10;99.90
21316;DHT22;10817;55.820;13.030;2023-11-18T08:11:48;-2.10;99.90
21316;DHT22;10817;55.820;13.030;2023-11-18T08:14:15;-1.80;99.90
21316;DHT22;10817;55.820;13.030;2023-11-18T08:16:42;-1.70;99.90
21316;DHT22;10817;55.820;13.030;2023-11-18T08:19:09;-1.70;99.90
21316;DHT22;10817;55.820;13.030;2023-11-18T08:21:36;-1.60;99.90
21316;DHT22;10817;55.820;13.030;2023-11-18T08:24:06;-1.40;99.90
21316;DHT22;10817;55.820;13.030;2023-11-18T08:26:34;-1.20;99.90
21316;DHT22;10817;55.820;13.030;2023-11-18T08:29:01;-1.00;99.90
21316;DHT22;10817;55.820;13.030;2023-11-18T08:31:27;-1.10;99.90
21316;DHT22;10817;55.820;13.030;2023-11-18T08:33:54;-0.90;99.90
21316;DHT22;10817;55.820;13.030;2023-11-18T08:36:21;-0.80;99.90
21316;DHT22;10817;55.820;13.030;2023-11-18T08:38:48;-0.70;99.90
21316;DHT22;10817;55.820;13.030;2023-11-18T08:41:16;-0.50;99.90
21316;DHT22;10817;55.820;13.030;2023-11-18T08:43:45;0.00;99.90
21316;DHT22;10817;55.820;13.030;2023-11-18T08:46:14;1.10;99.90
21316;DHT22;10817;55.820;13.030;2023-11-18T08:48:41;2.10;99.90
21316;DHT22;10817;55.820;13.030;2023-11-18T08:51:10;3.20;99.90
21316;DHT22;10817;55.820;13.030;2023-11-18T08:53:38;4.50;99.90
21316;DHT22;10817;55.820;13.030;2023-11-18T08:56:08;5.30;99.90
21316;DHT22;10817;55.820;13.030;2023-11-18T08:58:41;6.00;99.90
21316;DHT22;10817;55.820;13.030;2023-11-18T09:01:10;6.30;99.90
21316;DHT22;10817;55.820;13.030;2023-11-18T09:03:41;6.60;45.10
21316;DHT22;10817;55.820;13.030;2023-11-18T09:06:16;6.90;44.00
21316;DHT22;10817;55.820;13.030;2023-11-18T09:10:03;7.50;14.30
21316;DHT22;10817;55.820;13.030;2023-11-18T09:13:26;7.30;1.00
21316;DHT22;10817;55.820;13.030;2023-11-18T09:17:09;8.50;1.00
21316;DHT22;10817;55.820;13.030;2023-11-18T09:20:50;10.20;1.00
21316;DHT22;10817;55.820;13.030;2023-11-18T09:27:19;9.70;1.00
21316;DHT22;10817;55.820;13.030;2023-11-18T09:30:24;9.80;1.00
21316;DHT22;10817;55.820;13.030;2023-11-18T09:33:29;8.70;1.00
21316;DHT22;10817;55.820;13.030;2023-11-18T09:36:46;10.80;1.00
21316;DHT22;10817;55.820;13.030;2023-11-18T09:48:08;12.50;1.00
21316;DHT22;10817;55.820;13.030;2023-11-18T09:51:01;11.60;1.00
21316;DHT22;10817;55.820;13.030;2023-11-18T10:01:07;13.30;1.00
21316;DHT22;10817;55.820;13.030;2023-11-18T10:04:45;12.80;99.90
21316;DHT22;10817;55.820;13.030;2023-11-18T10:07:34;13.20;1.00
21316;DHT22;10817;55.820;13.030;2023-11-18T10:10:05;11.00;60.80
21316;DHT22;10817;55.820;13.030;2023-11-18T10:12:40;12.00;99.90
21316;DHT22;10817;55.820;13.030;2023-11-18T10:15:08;13.70;99.90
21316;DHT22;10817;55.820;13.030;2023-11-18T10:17:38;12.60;99.90
21316;DHT22;10817;55.820;13.030;2023-11-18T10:20:21;12.80;99.90
21316;DHT22;10817;55.820;13.030;2023-11-18T10:23:08;14.40;1.00
21316;DHT22;10817;55.820;13.030;2023-11-18T10:25:36;13.10;1.00
21316;DHT22;10817;55.820;13.030;2023-11-18T10:28:06;13.50;1.00
21316;DHT22;10817;55.820;13.030;2023-11-18T10:30:43;13.00;1.00
21316;DHT22;10817;55.820;13.030;2023-11-18T10:33:14;12.80;1.00
21316;DHT22;10817;55.820;13.030;2023-11-18T10:35:49;12.80;99.90
21316;DHT22;10817;55.820;13.030;2023-11-18T10:38:18;12.10;1.00
21316;DHT22;10817;55.820;13.030;2023-11-18T10:40:46;13.30;1.00
21316;DHT22;10817;55.820;13.030;2023-11-18T10:43:13;13.60;99.90
21316;DHT22;10817;55.820;13.030;2023-11-18T10:45:42;13.90;99.90
21316;DHT22;10817;55.820;13.030;2023-11-18T10:48:12;13.70;1.00
21316;DHT22;10817;55.820;13.030;2023-11-18T10:50:42;13.40;99.90
21316;DHT22;10817;55.820;13.030;2023-11-18T10:53:11;13.00;99.90
21316;DHT22;10817;55.820;13.030;2023-11-18T10:55:43;13.40;99.90
21316;DHT22;10817;55.820;13.030;2023-11-18T10:58:10;13.40;94.50
21316;DHT22;10817;55.820;13.030;2023-11-18T11:00:47;13.60;1.00
21316;DHT22;10817;55.820;13.030;2023-11-18T11:03:15;14.00;1.00
21316;DHT22;10817;55.820;13.030;2023-11-18T11:05:41;14.00;99.90
21316;DHT22;10817;55.820;13.030;2023-11-18T11:08:11;14.10;99.90
21316;DHT22;10817;55.820;13.030;2023-11-18T11:10:41;14.20;1.00
21316;DHT22;10817;55.820;13.030;2023-11-18T11:13:09;15.70;1.00
21316;DHT22;10817;55.820;13.030;2023-11-18T11:15:40;16.80;1.00
21316;DHT22;10817;55.820;13.030;2023-11-18T11:18:12;15.80;99.90
21316;DHT22;10817;55.820;13.030;2023-11-18T11:20:57;16.60;1.00
21316;DHT22;10817;55.820;13.030;2023-11-18T11:23:35;17.30;99.90
21316;DHT22;10817;55.820;13.030;2023-11-18T11:26:23;17.10;1.00
21316;DHT22;10817;55.820;13.030;2023-11-18T11:29:00;17.10;99.90
21316;DHT22;10817;55.820;13.030;2023-11-18T11:31:32;17.00;99.90
21316;DHT22;10817;55.820;13.030;2023-11-18T11:34:05;16.90;1.00
21316;DHT22;10817;55.820;13.030;2023-11-18T11:36:36;16.70;1.00
21316;DHT22;10817;55.820;13.030;2023-11-18T11:39:05;16.10;1.00
21316;DHT22;10817;55.820;13.030;2023-11-18T11:41:37;15.90;44.00
21316;DHT22;10817;55.820;13.030;2023-11-18T11:44:06;15.90;99.90
21316;DHT22;10817;55.820;13.030;2023-11-18T11:46:34;15.20;99.90
21316;DHT22;10817;55.820;13.030;2023-11-18T11:49:03;14.60;1.00
21316;DHT22;10817;55.820;13.030;2023-11-18T11:51:45;13.60;99.90
21316;DHT22;10817;55.820;13.030;2023-11-18T11:54:19;13.10;99.90
21316;DHT22;10817;55.820;13.030;2023-11-18T11:56:49;13.00;1.00
21316;DHT22;10817;55.820;13.030;2023-11-18T11:59:35;12.80;21.00
21316;DHT22;10817;55.820;13.030;2023-11-18T12:02:09;12.90;99.90
21316;DHT22;10817;55.820;13.030;2023-11-18T12:04:37;13.30;1.00
21316;DHT22;10817;55.820;13.030;2023-11-18T12:07:08;13.40;1.00
21316;DHT22;10817;55.820;13.030;2023-11-18T12:09:35;13.90;99.90
21316;DHT22;10817;55.820;13.030;2023-11-18T12:12:10;13.80;1.00
21316;DHT22;10817;55.820;13.030;2023-11-18T12:14:51;13.80;49.50
21316;DHT22;10817;55.820;13.030;2023-11-18T12:17:22;14.90;1.00
21316;DHT22;10817;55.820;13.030;2023-11-18T12:19:54;15.30;99.90
21316;DHT22;10817;55.820;13.030;2023-11-18T12:22:25;15.30;99.90
21316;DHT22;10817;55.820;13.030;2023-11-18T12:28:07;15.30;1.00
21316;DHT22;10817;55.820;13.030;2023-11-18T12:30:45;14.60;99.90
21316;DHT22;10817;55.820;13.030;2023-11-18T12:34:00;15.20;99.90
21316;DHT22;10817;55.820;13.030;2023-11-18T12:40:18;14.40;88.60
21316;DHT22;10817;55.820;13.030;2023-11-18T12:43:01;13.30;99.90
21316;DHT22;10817;55.820;13.030;2023-11-18T12:46:24;13.10;1.00
21316;DHT22;10817;55.820;13.030;2023-11-18T12:48:57;13.30;1.00
21316;DHT22;10817;55.820;13.030;2023-11-18T12:51:25;13.70;99.90
21316;DHT22;10817;55.820;13.030;2023-11-18T12:53:52;14.10;1.00
21316;DHT22;10817;55.820;13.030;2023-11-18T12:56:20;14.50;1.00
21316;DHT22;10817;55.820;13.030;2023-11-18T12:58:50;14.90;1.00
21316;DHT22;10817;55.820;13.030;2023-11-18T13:01:17;14.90;14.90
21316;DHT22;10817;55.820;13.030;2023-11-18T13:03:44;14.70;51.20
21316;DHT22;10817;55.820;13.030;2023-11-18T13:06:12;15.00;1.00
21316;DHT22;10817;55.820;13.030;2023-11-18T13:08:39;15.50;99.90
21316;DHT22;10817;55.820;13.030;2023-11-18T13:11:06;15.50;99.90
21316;DHT22;10817;55.820;13.030;2023-11-18T13:13:41;14.50;99.90
21316;DHT22;10817;55.820;13.030;2023-11-18T13:16:09;14.50;1.00
21316;DHT22;10817;55.820;13.030;2023-11-18T13:18:43;14.20;99.90
21316;DHT22;10817;55.820;13.030;2023-11-18T13:21:16;13.40;99.90
21316;DHT22;10817;55.820;13.030;2023-11-18T13:23:47;12.70;1.00
21316;DHT22;10817;55.820;13.030;2023-11-18T13:26:15;12.10;99.90
21316;DHT22;10817;55.820;13.030;2023-11-18T13:28:43;12.30;99.90
21316;DHT22;10817;55.820;13.030;2023-11-18T13:31:11;11.90;99.90
21316;DHT22;10817;55.820;13.030;2023-11-18T13:33:42;11.60;1.00
21316;DHT22;10817;55.820;13.030;2023-11-18T13:36:10;10.90;1.00
21316;DHT22;10817;55.820;13.030;2023-11-18T13:38:37;10.40;1.00
21316;DHT22;10817;55.820;13.030;2023-11-18T13:41:04;11.70;1.00
21316;DHT22;10817;55.820;13.030;2023-11-18T13:43:41;9.30;1.00
21316;DHT22;10817;55.820;13.030;2023-11-18T13:46:11;8.40;1.00
21316;DHT22;10817;55.820;13.030;2023-11-18T13:48:39;7.40;1.00
21316;DHT22;10817;55.820;13.030;2023-11-18T13:51:08;6.70;1.00
21316;DHT22;10817;55.820;13.030;2023-11-18T13:53:39;6.20;1.00
21316;DHT22;10817;55.820;13.030;2023-11-18T13:56:07;5.70;9.10
21316;DHT22;10817;55.820;13.030;2023-11-18T13:58:35;5.30;20.40
21316;DHT22;10817;55.820;13.030;2023-11-18T14:01:05;4.90;36.90
21316;DHT22;10817;55.820;13.030;2023-11-18T14:03:34;4.50;57.50
21316;DHT22;10817;55.820;13.030;2023-11-18T14:06:02;4.30;71.90
21316;DHT22;10817;55.820;13.030;2023-11-18T14:08:29;4.10;83.00
21316;DHT22;10817;55.820;13.030;2023-11-18T14:10:56;3.90;92.00
21316;DHT22;10817;55.820;13.030;2023-11-18T14:13:23;3.70;99.20
21316;DHT22;10817;55.820;13.030;2023-11-18T14:15:50;3.50;99.90
21316;DHT22;10817;55.820;13.030;2023-11-18T14:18:20;3.30;99.90
21316;DHT22;10817;55.820;13.030;2023-11-18T14:20:49;3.10;99.90
21316;DHT22;10817;55.820;13.030;2023-11-18T14:23:16;2.90;99.90
21316;DHT22;10817;55.820;13.030;2023-11-18T14:25:44;2.70;99.90
21316;DHT22;10817;55.820;13.030;2023-11-18T14:28:11;2.60;99.90
21316;DHT22;10817;55.820;13.030;2023-11-18T14:30:38;2.40;99.90
21316;DHT22;10817;55.820;13.030;2023-11-18T14:33:06;2.20;99.90
21316;DHT22;10817;55.820;13.030;2023-11-18T14:35:33;2.10;99.90
21316;DHT22;10817;55.820;13.030;2023-11-18T14:38:02;1.90;99.90
21316;DHT22;10817;55.820;13.030;2023-11-18T14:40:28;1.80;99.90
21316;DHT22;10817;55.820;13.030;2023-11-18T14:42:55;1.60;99.90
21316;DHT22;10817;55.820;13.030;2023-11-18T14:45:22;1.50;99.90
21316;DHT22;10817;55.820;13.030;2023-11-18T14:47:49;3.40;99.90
21316;DHT22;10817;55.820;13.030;2023-11-18T14:50:19;1.30;99.90
21316;DHT22;10817;55.820;13.030;2023-11-18T14:52:46;1.20;99.90
21316;DHT22;10817;55.820;13.030;2023-11-18T14:55:15;1.00;99.90
21316;DHT22;10817;55.820;13.030;2023-11-18T14:57:43;0.80;99.90
21316;DHT22;10817;55.820;13.030;2023-11-18T15:00:12;0.70;99.90
21316;DHT22;10817;55.820;13.030;2023-11-18T15:02:46;0.50;99.90
21316;DHT22;10817;55.820;13.030;2023-11-18T15:05:14;0.30;99.90
21316;DHT22;10817;55.820;13.030;2023-11-18T15:07:44;0.10;99.90
21316;DHT22;10817;55.820;13.030;2023-11-18T15:10:15;1.90;99.90
21316;DHT22;10817;55.820;13.030;2023-11-18T15:12:46;0.00;99.90
21316;DHT22;10817;55.820;13.030;2023-11-18T15:15:13;0.00;99.90
21316;DHT22;10817;55.820;13.030;2023-11-18T15:17:45;0.10;99.90
21316;DHT22;10817;55.820;13.030;2023-11-18T15:20:12;-0.10;99.90
21316;DHT22;10817;55.820;13.030;2023-11-18T15:22:41;-0.20;99.90
21316;DHT22;10817;55.820;13.030;2023-11-18T15:25:10;-0.30;99.90
21316;DHT22;10817;55.820;13.030;2023-11-18T15:27:40;-0.40;99.90
21316;DHT22;10817;55.820;13.030;2023-11-18T15:30:09;-0.40;99.90
21316;DHT22;10817;55.820;13.030;2023-11-18T15:32:39;-0.40;99.90
21316;DHT22;10817;55.820;13.030;2023-11-18T15:35:08;-0.10;99.90
21316;DHT22;10817;55.820;13.030;2023-11-18T15:37:36;0.00;99.90
21316;DHT22;10817;55.820;13.030;2023-11-18T15:40:05;0.10;99.90
21316;DHT22;10817;55.820;13.030;2023-11-18T15:42:37;0.10;99.90
21316;DHT22;10817;55.820;13.030;2023-11-18T15:45:08;0.10;99.90
21316;DHT22;10817;55.820;13.030;2023-11-18T15:47:36;0.10;99.90
21316;DHT22;10817;55.820;13.030;2023-11-18T15:50:05;0.10;99.90
21316;DHT22;10817;55.820;13.030;2023-11-18T15:52:33;0.10;99.90
21316;DHT22;10817;55.820;13.030;2023-11-18T15:55:01;0.10;99.90
21316;DHT22;10817;55.820;13.030;2023-11-18T15:57:28;0.50;99.90
21316;DHT22;10817;55.820;13.030;2023-11-18T15:59:55;0.10;99.90
21316;DHT22;10817;55.820;13.030;2023-11-18T16:02:23;0.10;99.90
21316;DHT22;10817;55.820;13.030;2023-11-18T16:04:50;0.10;99.90
21316;DHT22;10817;55.820;13.030;2023-11-18T16:07:17;0.10;99.90